Time;durP1;ratioP1;P1;durP2;ratioP2;P2;SDS_P1;SDS_P2;PMS_P1;PMS_P2;Temp;Humidity;BMP_temperature;BMP_pressure;BME280_temperature;BME280_humidity;BME280_pressure;Samples;Min_cycle;Max_cycle;Signal;HPM_P1;HPM_P2
2023/09/30 00:01:10;;;;;;;15.20;5.68;;;;;;;13.50;100.00;102453.63;5069484;28;20511;-66
2023/09/30 00:03:36;;;;;;;15.60;6.63;;;;;;;13.46;100.00;102451.03;5069477;28;20017;-66
2023/09/30 00:06:01;;;;;;;15.85;5.50;;;;;;;13.50;100.00;102452.75;5070573;28;20035;-65
2023/09/30 00:08:27;;;;;;;12.45;5.68;;;;;;;13.50;100.00;102455.41;5069001;28;20048;-66
2023/09/30 00:10:54;;;;;;;16.92;6.07;;;;;;;13.44;100.00;102455.47;5067725;28;20502;-67
2023/09/30 00:13:20;;;;;;;12.77;5.72;;;;;;;13.40;100.00;102450.25;5067149;28;20033;-67
2023/09/30 00:15:45;;;;;;;12.13;5.55;;;;;;;13.43;100.00;102465.22;5068398;28;20366;-66
2023/09/30 00:18:10;;;;;;;13.23;5.32;;;;;;;13.44;100.00;102461.66;5066343;28;20028;-66
2023/09/30 00:20:36;;;;;;;16.30;5.95;;;;;;;13.46;100.00;102472.22;5067380;28;20427;-67
2023/09/30 00:23:01;;;;;;;13.10;6.07;;;;;;;13.44;100.00;102463.44;5066478;28;20115;-65
2023/09/30 00:25:28;;;;;;;17.08;6.43;;;;;;;13.48;100.00;102462.47;5066383;28;20020;-65
2023/09/30 00:27:53;;;;;;;13.48;5.93;;;;;;;13.48;100.00;102467.75;5067296;28;20402;-66
2023/09/30 00:30:18;;;;;;;16.38;6.32;;;;;;;13.47;100.00;102466.03;5067415;28;20024;-65
2023/09/30 00:32:44;;;;;;;14.27;6.68;;;;;;;13.42;100.00;102468.75;5069515;28;20478;-66
2023/09/30 00:35:12;;;;;;;12.25;6.00;;;;;;;13.36;100.00;102464.47;5069203;28;20059;-66
2023/09/30 00:37:38;;;;;;;13.97;7.00;;;;;;;13.36;100.00;102461.81;5068739;28;20471;-66
2023/09/30 00:40:05;;;;;;;15.23;6.35;;;;;;;13.33;100.00;102453.94;5067189;28;20032;-65
2023/09/30 00:42:30;;;;;;;12.00;6.25;;;;;;;13.29;100.00;102462.84;5068890;28;20053;-67
2023/09/30 00:44:55;;;;;;;13.60;6.47;;;;;;;13.27;100.00;102475.22;5067686;28;20028;-65
2023/09/30 00:47:21;;;;;;;12.25;6.47;;;;;;;13.24;100.00;102486.75;5066842;28;20178;-66
2023/09/30 00:49:46;;;;;;;12.65;6.63;;;;;;;13.20;100.00;102498.28;5067626;28;20016;-66
2023/09/30 00:52:12;;;;;;;16.30;7.00;;;;;;;13.22;100.00;102495.63;5067071;28;20066;-65
2023/09/30 00:54:38;;;;;;;13.98;6.03;;;;;;;13.18;100.00;102486.00;5069722;28;20032;-66
2023/09/30 00:57:04;;;;;;;12.27;6.82;;;;;;;13.19;100.00;102490.38;5083110;28;20129;-65
2023/09/30 00:59:32;;;;;;;21.17;7.65;;;;;;;13.21;100.00;102492.09;5069123;28;20418;-66
2023/09/30 01:01:59;;;;;;;15.73;6.88;;;;;;;13.19;100.00;102493.03;5068669;28;20028;-65
2023/09/30 01:04:26;;;;;;;21.25;7.90;;;;;;;13.17;100.00;102490.41;5066392;28;20107;-66
2023/09/30 01:06:52;;;;;;;18.90;7.18;;;;;;;13.16;100.00;102503.66;5065450;28;20029;-67
2023/09/30 01:09:17;;;;;;;14.38;6.88;;;;;;;13.14;100.00;102511.63;5065275;28;20075;-65
2023/09/30 01:11:42;;;;;;;14.73;6.90;;;;;;;13.07;100.00;102516.19;5064623;28;20033;-65
2023/09/30 01:14:40;;;;;;;19.33;7.50;;;;;;;13.05;100.00;102506.50;5066469;28;20048;-67
2023/09/30 01:17:09;;;;;;;13.07;6.83;;;;;;;13.05;100.00;102501.22;5065066;28;20028;-65
2023/09/30 01:19:35;;;;;;;16.58;7.03;;;;;;;13.02;100.00;102504.78;5066491;28;20485;-65
2023/09/30 01:22:02;;;;;;;14.20;6.93;;;;;;;12.99;100.00;102507.47;5065901;28;20032;-64
2023/09/30 01:24:28;;;;;;;23.52;7.60;;;;;;;12.99;100.00;102508.38;5065977;28;20107;-62
2023/09/30 01:26:54;;;;;;;13.25;7.18;;;;;;;12.97;100.00;102499.56;5064729;28;20052;-64
2023/09/30 01:29:20;;;;;;;16.98;8.65;;;;;;;12.95;100.00;102500.50;5064474;28;20113;-65
2023/09/30 01:31:47;;;;;;;14.57;6.88;;;;;;;12.94;100.00;102498.78;5066178;28;20489;-65
2023/09/30 01:34:13;;;;;;;16.02;7.45;;;;;;;12.97;100.00;102493.41;5065669;28;20085;-63
2023/09/30 01:36:39;;;;;;;18.70;8.23;;;;;;;12.93;100.00;102497.88;5066763;28;20025;-65
2023/09/30 01:39:04;;;;;;;18.45;7.90;;;;;;;12.94;100.00;102499.63;5065499;28;20028;-64
2023/09/30 01:41:29;;;;;;;20.35;8.50;;;;;;;12.92;100.00;102489.97;5064956;28;20417;-69
2023/09/30 01:43:55;;;;;;;14.52;8.80;;;;;;;12.81;100.00;102488.38;5065473;28;20382;-65
2023/09/30 01:46:20;;;;;;;21.42;8.73;;;;;;;12.84;100.00;102488.34;5066032;28;20028;-65
2023/09/30 01:48:45;;;;;;;18.17;9.05;;;;;;;12.82;100.00;102495.41;5066027;28;20107;-66
2023/09/30 01:51:11;;;;;;;15.80;8.70;;;;;;;12.79;100.00;102498.09;5065079;28;20048;-66
2023/09/30 01:53:36;;;;;;;22.90;9.60;;;;;;;12.81;100.00;102496.31;5064488;28;20395;-67
2023/09/30 01:56:02;;;;;;;20.48;9.48;;;;;;;12.87;100.00;102504.16;5066054;28;20025;-66
2023/09/30 01:58:27;;;;;;;21.63;10.00;;;;;;;12.88;100.00;102503.25;5080832;28;20086;-66
2023/09/30 02:00:53;;;;;;;19.52;8.93;;;;;;;12.92;100.00;102506.72;5066001;28;20040;-66
2023/09/30 02:03:18;;;;;;;17.92;8.75;;;;;;;12.97;100.00;102507.50;5066492;28;20016;-66
2023/09/30 02:05:43;;;;;;;25.13;10.07;;;;;;;13.00;100.00;102503.94;5069187;28;20498;-66
2023/09/30 02:08:09;;;;;;;22.13;10.00;;;;;;;13.04;100.00;102503.00;5070245;28;20049;-66
2023/09/30 02:10:34;;;;;;;23.58;9.48;;;;;;;13.07;100.00;102505.59;5069826;28;20474;-66
2023/09/30 02:13:00;;;;;;;16.42;9.52;;;;;;;13.15;100.00;102502.78;5069104;28;20103;-65
2023/09/30 02:15:25;;;;;;;24.50;10.52;;;;;;;13.16;100.00;102503.66;5068699;28;20028;-65
2023/09/30 02:17:51;;;;;;;19.00;9.95;;;;;;;13.13;100.00;102499.31;5069552;28;20440;-66
2023/09/30 02:20:19;;;;;;;26.02;11.43;;;;;;;13.13;100.00;102492.22;5069858;28;20025;-67
2023/09/30 02:22:45;;;;;;;27.63;11.65;;;;;;;13.19;100.00;102482.44;5069121;28;20024;-66
2023/09/30 02:25:12;;;;;;;23.92;11.88;;;;;;;13.23;100.00;102481.47;5069552;28;20542;-66
2023/09/30 02:27:38;;;;;;;27.17;10.93;;;;;;;13.27;100.00;102488.44;5070008;28;20036;-65
2023/09/30 02:30:03;;;;;;;20.38;11.25;;;;;;;13.23;100.00;102497.34;5070639;28;20028;-67
2023/09/30 02:32:29;;;;;;;23.92;10.18;;;;;;;13.23;100.00;102490.31;5069991;28;20028;-66
2023/09/30 02:34:54;;;;;;;26.13;10.75;;;;;;;13.22;100.00;102493.81;5067824;28;20539;-66
2023/09/30 02:37:20;;;;;;;23.67;10.55;;;;;;;13.21;100.00;102486.78;5071084;28;20048;-67
2023/09/30 02:39:46;;;;;;;25.10;10.73;;;;;;;13.20;100.00;102481.53;5069502;28;20024;-65
2023/09/30 02:42:11;;;;;;;29.73;11.43;;;;;;;13.22;100.00;102483.25;5069191;28;20047;-65
2023/09/30 02:44:36;;;;;;;26.20;12.30;;;;;;;13.22;100.00;102482.38;5070046;28;20455;-65
2023/09/30 02:47:02;;;;;;;28.70;12.02;;;;;;;13.22;100.00;102485.03;5068626;28;20038;-65
2023/09/30 02:49:27;;;;;;;25.58;12.10;;;;;;;13.24;100.00;102491.16;5070003;28;20075;-66
2023/09/30 02:51:53;;;;;;;27.90;12.18;;;;;;;13.18;100.00;102497.44;5069140;28;20063;-66
2023/09/30 02:54:18;;;;;;;28.33;12.23;;;;;;;13.16;100.00;102493.09;5069997;28;20070;-64
2023/09/30 02:56:46;;;;;;;24.00;11.38;;;;;;;13.18;100.00;102497.44;5069610;28;20402;-66
2023/09/30 02:59:11;;;;;;;24.77;11.70;;;;;;;13.23;100.00;102486.78;5068626;28;20021;-65
2023/09/30 03:01:37;;;;;;;26.10;13.25;;;;;;;13.25;100.00;102482.34;5069936;28;20029;-65
2023/09/30 03:04:03;;;;;;;27.25;12.82;;;;;;;13.25;100.00;102479.69;5068912;28;20036;-64
2023/09/30 03:06:31;;;;;;;30.20;14.15;;;;;;;13.27;100.00;102480.50;5068391;28;20077;-65
2023/09/30 03:08:56;;;;;;;25.38;12.82;;;;;;;13.27;100.00;102481.41;5069511;28;20044;-64
2023/09/30 03:11:21;;;;;;;29.30;12.93;;;;;;;13.29;100.00;102484.00;5067781;28;20169;-64
2023/09/30 03:13:47;;;;;;;25.85;12.93;;;;;;;13.29;100.00;102485.78;5069349;28;20024;-67
2023/09/30 03:16:13;;;;;;;24.35;12.77;;;;;;;13.29;100.00;102489.31;5068060;28;20029;-66
2023/09/30 03:18:38;;;;;;;29.88;13.20;;;;;;;13.29;100.00;102489.31;5069548;28;20100;-64
2023/09/30 03:21:13;;;;;;;25.20;12.35;;;;;;;13.28;100.00;102487.56;5069425;28;20544;-66
2023/09/30 03:23:39;;;;;;;27.08;12.65;;;;;;;13.28;100.00;102482.28;5084359;28;20052;-66
2023/09/30 03:26:09;;;;;;;28.33;14.00;;;;;;;13.27;100.00;102485.81;5069382;28;20514;-65
2023/09/30 03:28:37;;;;;;;27.73;13.75;;;;;;;13.29;100.00;102483.13;5067692;28;20039;-67
2023/09/30 03:31:04;;;;;;;29.90;14.05;;;;;;;13.28;100.00;102490.22;5069297;28;20029;-65
2023/09/30 03:33:30;;;;;;;35.03;15.00;;;;;;;13.32;100.00;102493.66;5069103;28;20060;-63
2023/09/30 03:35:58;;;;;;;30.08;13.70;;;;;;;13.30;100.00;102487.53;5068005;28;20094;-66
2023/09/30 03:38:23;;;;;;;32.90;15.98;;;;;;;13.35;100.00;102483.03;5069250;28;20028;-66
2023/09/30 03:40:48;;;;;;;37.20;16.70;;;;;;;13.36;100.00;102476.81;5068203;28;20482;-66
2023/09/30 03:43:14;;;;;;;31.52;14.77;;;;;;;13.33;100.00;102480.41;5067562;28;20044;-66
2023/09/30 03:45:41;;;;;;;34.58;15.25;;;;;;;13.36;100.00;102488.28;5068668;28;20028;-66
2023/09/30 03:48:06;;;;;;;35.30;15.25;;;;;;;13.38;100.00;102482.97;5068100;28;20016;-65
2023/09/30 03:50:32;;;;;;;34.13;14.80;;;;;;;13.42;100.00;102479.34;5068588;28;20489;-64
2023/09/30 03:53:05;;;;;;;31.98;15.52;;;;;;;13.37;100.00;102483.88;5067930;28;20086;-66
2023/09/30 03:55:31;;;;;;;31.77;15.43;;;;;;;13.36;100.00;102477.69;5067555;28;20048;-66
2023/09/30 03:57:57;;;;;;;32.33;14.88;;;;;;;13.38;100.00;102470.59;5067188;28;20032;-66
2023/09/30 04:00:24;;;;;;;33.85;14.98;;;;;;;13.34;100.00;102476.84;5067878;28;20032;-65
2023/09/30 04:02:49;;;;;;;35.30;16.95;;;;;;;13.34;100.00;102478.63;5068221;28;20032;-63
2023/09/30 04:05:16;;;;;;;33.30;15.52;;;;;;;13.34;100.00;102482.13;5067961;28;20610;-67
2023/09/30 04:07:42;;;;;;;31.40;16.02;;;;;;;13.38;100.00;102483.84;5067234;28;20059;-65
2023/09/30 04:10:09;;;;;;;38.33;15.75;;;;;;;13.42;100.00;102483.78;5067768;28;20020;-66
2023/09/30 04:12:34;;;;;;;32.50;15.57;;;;;;;13.37;100.00;102482.06;5068550;28;20029;-64
2023/09/30 04:15:00;;;;;;;36.33;15.63;;;;;;;13.33;100.00;102480.41;5068360;28;20015;-67
2023/09/30 04:17:26;;;;;;;32.03;16.05;;;;;;;13.31;100.00;102482.22;5067917;28;20051;-65
2023/09/30 04:19:52;;;;;;;34.22;16.67;;;;;;;13.31;100.00;102474.28;5066986;28;20025;-65
2023/09/30 04:22:18;;;;;;;39.33;16.15;;;;;;;13.31;100.00;102474.28;5068156;28;20023;-67
2023/09/30 04:24:44;;;;;;;41.83;18.08;;;;;;;13.30;100.00;102485.75;5067073;28;20032;-65
2023/09/30 04:27:09;;;;;;;36.88;16.05;;;;;;;13.27;100.00;102491.09;5066913;28;20497;-65
2023/09/30 04:29:35;;;;;;;36.63;16.60;;;;;;;13.24;100.00;102502.63;5067255;28;20549;-65
2023/09/30 04:32:00;;;;;;;44.83;18.00;;;;;;;13.22;100.00;102500.91;5066097;28;20032;-64
2023/09/30 04:34:28;;;;;;;35.97;16.33;;;;;;;13.22;100.00;102504.41;5067279;28;20028;-67
2023/09/30 04:36:53;;;;;;;29.92;15.80;;;;;;;13.21;100.00;102501.78;5066771;28;20025;-65
2023/09/30 04:39:19;;;;;;;40.00;17.02;;;;;;;13.18;100.00;102501.88;5067724;28;20032;-66
2023/09/30 04:41:44;;;;;;;36.67;16.85;;;;;;;13.13;100.00;102492.22;5065929;28;20024;-67
2023/09/30 04:44:09;;;;;;;38.55;19.23;;;;;;;13.12;100.00;102498.44;5054186;28;20111;-65
2023/09/30 04:46:40;;;;;;;37.40;17.15;;;;;;;13.09;100.00;102506.41;5047397;28;20033;-65
2023/09/30 04:49:08;;;;;;;36.17;17.65;;;;;;;13.09;100.00;102509.06;5045436;28;20100;-66
2023/09/30 04:51:34;;;;;;;46.28;17.83;;;;;;;13.16;100.00;102503.66;5046775;28;20072;-65
2023/09/30 04:53:59;;;;;;;46.95;20.95;;;;;;;13.19;100.00;102507.16;5046456;28;20048;-65
2023/09/30 04:56:25;;;;;;;40.72;20.23;;;;;;;13.20;100.00;102508.00;5059547;28;20032;-66
2023/09/30 04:58:51;;;;;;;40.13;19.02;;;;;;;13.18;100.00;102504.53;5066792;28;20466;-67
2023/09/30 05:01:18;;;;;;;39.40;17.77;;;;;;;13.16;100.00;102495.72;5063725;28;20029;-65
2023/09/30 05:03:44;;;;;;;41.85;19.02;;;;;;;13.18;100.00;102512.47;5066315;28;20021;-65
2023/09/30 05:06:09;;;;;;;39.28;18.27;;;;;;;13.15;100.00;102508.09;5065982;28;20090;-66
2023/09/30 05:08:35;;;;;;;42.35;20.08;;;;;;;13.13;100.00;102510.75;5066668;28;20049;-65
2023/09/30 05:11:00;;;;;;;40.97;20.20;;;;;;;13.08;100.00;102507.34;5057486;28;20028;-64
2023/09/30 05:13:26;;;;;;;46.70;20.17;;;;;;;13.08;100.00;102502.03;5059637;28;20073;-64
2023/09/30 05:15:52;;;;;;;38.30;19.33;;;;;;;13.04;100.00;102512.69;5066135;28;20035;-66
2023/09/30 05:18:17;;;;;;;40.95;19.42;;;;;;;13.00;100.00;102510.09;5065846;28;20044;-67
2023/09/30 05:20:43;;;;;;;35.42;19.35;;;;;;;12.97;100.00;102512.81;5063851;28;20040;-67
2023/09/30 05:23:12;;;;;;;35.78;18.98;;;;;;;12.95;100.00;102504.03;5071786;28;20020;-63
2023/09/30 05:25:37;;;;;;;36.80;18.63;;;;;;;12.95;100.00;102505.78;5055004;28;20391;-68
2023/09/30 05:28:03;;;;;;;35.00;17.27;;;;;;;12.91;100.00;102509.41;5054990;28;20028;-68
2023/09/30 05:30:29;;;;;;;37.75;18.17;;;;;;;12.86;100.00;102498.91;5055102;28;20036;-67
2023/09/30 05:32:55;;;;;;;34.13;17.65;;;;;;;12.84;100.00;102512.16;5066956;28;20013;-67
2023/09/30 05:35:22;;;;;;;33.20;16.73;;;;;;;12.80;100.00;102507.81;5056246;28;20475;-68
2023/09/30 05:37:47;;;;;;;40.15;19.15;;;;;;;12.79;100.00;102515.78;5054395;28;20467;-67
2023/09/30 05:40:21;;;;;;;36.40;18.25;;;;;;;12.81;100.00;102509.56;5060768;28;20028;-66
2023/09/30 05:42:50;;;;;;;41.25;19.42;;;;;;;12.84;100.00;102504.22;5056629;28;20013;-67
2023/09/30 05:45:15;;;;;;;47.45;21.40;;;;;;;12.87;100.00;102512.09;5057707;28;20025;-71
2023/09/30 05:47:41;;;;;;;35.15;18.38;;;;;;;12.87;100.00;102530.63;5065381;28;20456;-66
2023/09/30 05:50:09;;;;;;;43.67;19.75;;;;;;;12.89;100.00;102518.22;5067704;28;20035;-65
2023/09/30 05:52:34;;;;;;;44.67;19.73;;;;;;;12.95;100.00;102519.03;5070017;28;20309;-64
2023/09/30 05:55:02;;;;;;;45.03;20.25;;;;;;;13.00;100.00;102522.44;5069273;28;20534;-64
2023/09/30 05:57:28;;;;;;;48.00;22.45;;;;;;;13.06;100.00;102530.28;5069676;28;20025;-64
2023/09/30 05:59:54;;;;;;;40.30;20.10;;;;;;;13.05;100.00;102523.25;5070623;28;20576;-64
2023/09/30 06:02:19;;;;;;;47.97;21.40;;;;;;;13.10;100.00;102518.75;5073999;28;20144;-67
2023/09/30 06:04:46;;;;;;;47.22;20.15;;;;;;;13.08;100.00;102520.56;5090923;28;20387;-67
2023/09/30 06:07:11;;;;;;;45.88;20.25;;;;;;;13.10;100.00;102512.59;5073894;28;20031;-67
2023/09/30 06:09:37;;;;;;;45.88;21.30;;;;;;;13.13;100.00;102513.41;5090786;28;20040;-65
2023/09/30 06:12:06;;;;;;;50.58;21.10;;;;;;;13.16;100.00;102519.56;5089889;28;20456;-64
2023/09/30 06:14:31;;;;;;;46.85;22.42;;;;;;;13.21;100.00;102529.16;5068527;28;20020;-65
2023/09/30 06:16:57;;;;;;;52.75;22.73;;;;;;;13.22;100.00;102528.25;5087619;28;20020;-67
2023/09/30 06:19:23;;;;;;;44.63;21.48;;;;;;;13.25;100.00;102524.69;5061130;28;20021;-66
2023/09/30 06:21:50;;;;;;;44.30;21.60;;;;;;;13.28;100.00;102535.22;5081718;28;20037;-64
2023/09/30 06:24:15;;;;;;;47.78;22.92;;;;;;;13.34;100.00;102529.78;5083638;28;20031;-66
2023/09/30 06:26:40;;;;;;;50.13;24.75;;;;;;;13.41;100.00;102541.16;5074951;28;20124;-66
2023/09/30 06:29:06;;;;;;;44.92;22.02;;;;;;;13.47;100.00;102553.41;5086918;28;20055;-66
2023/09/30 06:31:33;;;;;;;56.33;25.75;;;;;;;13.57;100.00;102560.31;5076354;28;20468;-65
2023/09/30 06:34:00;;;;;;;64.03;27.52;;;;;;;13.64;100.00;102558.44;5061126;28;20526;-65
2023/09/30 06:36:25;;;;;;;62.60;27.10;;;;;;;13.73;100.00;102563.53;5065148;28;20021;-63
2023/09/30 06:38:52;;;;;;;51.28;25.50;;;;;;;13.82;100.00;102567.75;5070079;28;20025;-66
2023/09/30 06:41:18;;;;;;;50.00;26.08;;;;;;;13.93;100.00;102561.41;5067530;28;20475;-66
2023/09/30 06:43:43;;;;;;;48.42;26.45;;;;;;;13.98;100.00;102559.50;5066279;28;20031;-67
2023/09/30 06:46:09;;;;;;;58.38;27.75;;;;;;;14.09;100.00;102554.84;5083246;28;20033;-64
2023/09/30 06:48:35;;;;;;;50.45;27.02;;;;;;;14.12;100.00;102557.44;5082462;28;20425;-66
2023/09/30 06:51:01;;;;;;;56.88;27.83;;;;;;;14.22;100.00;102571.38;5067295;28;20047;-65
2023/09/30 06:53:27;;;;;;;49.75;25.40;;;;;;;14.39;100.00;102575.44;5083081;28;20516;-66
2023/09/30 06:55:52;;;;;;;52.05;26.38;;;;;;;14.43;100.00;102576.22;5066077;28;20028;-66
2023/09/30 06:58:21;;;;;;;45.75;25.33;;;;;;;14.56;100.00;102575.03;5069749;28;20036;-65
2023/09/30 07:00:50;;;;;;;47.70;25.67;;;;;;;14.62;100.00;102576.69;5067724;28;20032;-69
2023/09/30 07:03:15;;;;;;;;;;;;;;;14.64;100.00;102578.41;5084119;28;20025;-66
2023/09/30 07:05:41;;;;;;;44.15;23.67;;;;;;;14.75;100.00;102577.28;5068182;28;19912;-66
2023/09/30 07:08:06;;;;;;;49.17;25.35;;;;;;;14.67;100.00;102577.47;5055566;28;20041;-66
2023/09/30 07:10:32;;;;;;;46.17;23.45;;;;;;;14.77;100.00;102588.72;5047931;28;20096;-63
2023/09/30 07:12:57;;;;;;;45.17;25.23;;;;;;;14.76;100.00;102593.16;5061441;28;20399;-64
2023/09/30 07:15:23;;;;;;;50.63;26.25;;;;;;;14.81;100.00;102601.03;5045627;28;20020;-67
2023/09/30 07:17:48;;;;;;;48.58;25.30;;;;;;;14.75;100.00;102598.50;5046808;28;20732;-65
2023/09/30 07:20:14;;;;;;;43.53;23.88;;;;;;;14.73;100.00;102600.31;5058928;28;20067;-67
2023/09/30 07:22:40;;;;;;;49.95;23.85;;;;;;;14.77;100.00;102599.34;5068304;28;20039;-69
2023/09/30 07:25:06;;;;;;;44.70;24.98;;;;;;;14.70;100.00;102613.66;5067448;28;20295;-71
2023/09/30 07:27:31;;;;;;;50.78;25.30;;;;;;;14.64;100.00;102612.03;5066970;28;20017;-71
2023/09/30 07:29:57;;;;;;;45.25;23.98;;;;;;;14.70;100.00;102616.31;5065291;28;20020;-69
2023/09/30 07:32:23;;;;;;;42.00;23.45;;;;;;;14.73;100.00;102614.47;5065444;28;20025;-67
2023/09/30 07:34:49;;;;;;;42.90;23.33;;;;;;;14.74;100.00;102615.31;5056534;28;20024;-64
2023/09/30 07:37:14;;;;;;;45.17;24.77;;;;;;;14.79;100.00;102624.09;5065314;28;20240;-67
2023/09/30 07:39:40;;;;;;;43.60;26.73;;;;;;;14.79;100.00;102621.44;5066241;28;20027;-68
2023/09/30 07:42:08;;;;;;;42.75;24.45;;;;;;;14.83;100.00;102625.75;5066258;28;20028;-68
2023/09/30 07:44:36;;;;;;;46.60;25.13;;;;;;;14.91;100.00;102618.47;5068121;28;20024;-70
2023/09/30 07:47:03;;;;;;;44.03;23.85;;;;;;;14.96;100.00;102614.88;5067006;28;20107;-67
2023/09/30 07:49:29;;;;;;;47.13;25.40;;;;;;;15.04;100.00;102610.22;5069990;28;20462;-70
2023/09/30 07:51:54;;;;;;;43.78;24.48;;;;;;;15.04;100.00;102612.88;5068820;28;20119;-67
2023/09/30 07:54:20;;;;;;;45.60;26.05;;;;;;;15.07;100.00;102615.47;5068543;28;20479;-64
2023/09/30 07:56:45;;;;;;;47.65;24.83;;;;;;;15.20;100.00;102607.22;5066046;28;20040;-61
2023/09/30 07:59:11;;;;;;;43.05;25.52;;;;;;;15.29;100.00;102601.63;5068013;28;20021;-66
2023/09/30 08:01:37;;;;;;;41.72;22.67;;;;;;;15.38;100.00;102589.94;5067841;28;20032;-69
2023/09/30 08:04:02;;;;;;;38.38;22.48;;;;;;;15.44;100.00;102591.53;5068337;28;20032;-69
2023/09/30 08:06:28;;;;;;;37.08;22.15;;;;;;;15.53;100.00;102584.19;5067559;28;20027;-69
2023/09/30 08:08:55;;;;;;;38.55;20.83;;;;;;;15.62;100.00;102582.22;5067159;28;20045;-72
2023/09/30 08:11:20;;;;;;;35.63;21.17;;;;;;;15.65;100.00;102582.97;5066564;28;20392;-70
2023/09/30 08:13:46;;;;;;;34.85;20.20;;;;;;;15.75;100.00;102582.72;5066443;28;20031;-66
2023/09/30 08:16:11;;;;;;;29.52;18.60;;;;;;;15.76;100.00;102582.69;5068083;28;20028;-69
2023/09/30 08:18:37;;;;;;;38.92;19.58;;;;;;;15.84;100.00;102592.22;5054507;28;20559;-68
2023/09/30 08:21:02;;;;;;;26.10;17.13;;;;;;;15.99;100.00;102591.84;5045509;28;20058;-70
2023/09/30 08:23:27;;;;;;;27.05;16.00;;;;;;;16.11;100.00;102598.59;5045307;28;20689;-69
2023/09/30 08:25:54;;;;;;;28.65;16.10;;;;;;;16.17;100.00;102601.03;5045202;28;20024;-67
2023/09/30 08:28:20;;;;;;;27.45;15.43;;;;;;;16.28;100.00;102597.19;5047477;28;20028;-66
2023/09/30 08:30:46;;;;;;;37.75;16.83;;;;;;;16.30;100.00;102590.03;5073310;28;20470;-70
2023/09/30 08:33:11;;;;;;;25.42;14.63;;;;;;;16.38;100.00;102577.38;5065104;28;20477;-68
2023/09/30 08:35:38;;;;;;;26.30;15.10;;;;;;;16.28;100.00;102592.75;5052298;28;20013;-71
2023/09/30 08:38:03;;;;;;;26.40;14.00;;;;;;;16.51;100.00;102595.63;5056912;28;20319;-68
2023/09/30 08:40:29;;;;;;;23.90;13.82;;;;;;;16.59;100.00;102598.94;5059213;28;20479;-68
2023/09/30 08:42:54;;;;;;;22.13;12.80;;;;;;;16.74;100.00;102596.69;5081434;28;20097;-70
2023/09/30 08:45:20;;;;;;;23.80;12.93;;;;;;;16.95;100.00;102594.25;5063805;28;20028;-69
2023/09/30 08:47:50;;;;;;;20.63;12.50;;;;;;;17.18;100.00;102605.03;5066019;28;20032;-68
2023/09/30 08:50:16;;;;;;;28.50;12.23;;;;;;;17.54;100.00;102610.94;5065677;28;20017;-69
2023/09/30 08:52:43;;;;;;;27.52;12.60;;;;;;;17.55;100.00;102623.34;5065920;28;20031;-67
2023/09/30 08:55:09;;;;;;;24.27;12.05;;;;;;;17.57;100.00;102626.81;5066732;28;20081;-68
2023/09/30 08:57:40;;;;;;;22.08;10.75;;;;;;;17.74;100.00;102638.69;5080300;28;20041;-69
2023/09/30 09:00:06;;;;;;;22.63;11.32;;;;;;;17.78;100.00;102634.97;5065135;28;20672;-70
2023/09/30 09:02:34;;;;;;;19.00;11.35;;;;;;;17.80;100.00;102639.34;5066737;28;20024;-67
2023/09/30 09:05:01;;;;;;;20.35;10.30;;;;;;;17.78;100.00;102645.63;5065334;28;20051;-68
2023/09/30 09:07:26;;;;;;;21.50;10.75;;;;;;;17.73;100.00;102652.94;5064236;28;20447;-67
2023/09/30 09:10:08;;;;;;;22.63;10.18;;;;;;;17.66;100.00;102662.94;5063589;28;20116;-67
2023/09/30 09:12:35;;;;;;;22.20;9.07;;;;;;;17.70;100.00;102677.03;5078956;28;20037;-69
2023/09/30 09:15:00;;;;;;;18.00;8.48;;;;;;;17.83;100.00;102677.47;5066547;28;20023;-68
2023/09/30 09:17:43;;;;;;;20.08;7.85;;;;;;;17.86;100.00;102682.69;5068770;28;20107;-69
2023/09/30 09:20:10;;;;;;;18.20;8.18;;;;;;;17.88;100.00;102678.19;5067335;28;20052;-68
2023/09/30 09:22:40;;;;;;;16.75;7.90;;;;;;;17.83;100.00;102674.81;5068636;28;20040;-68
2023/09/30 09:25:07;;;;;;;22.00;7.72;;;;;;;17.77;100.00;102671.44;5068979;28;20021;-68
2023/09/30 09:27:36;;;;;;;16.48;7.72;;;;;;;17.80;100.00;102668.69;5083787;28;20047;-69
2023/09/30 09:30:16;;;;;;;21.58;7.65;;;;;;;18.04;100.00;102668.72;5069615;28;20114;-67
2023/09/30 09:33:04;;;;;;;16.80;7.05;;;;;;;18.20;100.00;102670.84;5067318;28;20040;-72
2023/09/30 09:35:34;;;;;;;15.95;5.80;;;;;;;18.34;100.00;102672.13;5085377;28;20065;-69
2023/09/30 09:38:04;;;;;;;15.80;5.05;;;;;;;18.48;100.00;102674.25;5082995;28;20023;-67
2023/09/30 09:40:30;;;;;;;16.25;5.55;;;;;;;18.63;100.00;102668.31;5089233;28;20031;-70
2023/09/30 09:42:57;;;;;;;12.88;4.95;;;;;;;18.76;100.00;102667.84;5085943;28;20025;-68
2023/09/30 09:45:24;;;;;;;12.85;4.57;;;;;;;18.87;100.00;102667.44;5068512;28;20024;-69
2023/09/30 09:47:51;;;;;;;11.60;4.50;;;;;;;18.97;100.00;102667.91;5068225;28;20383;-68
2023/09/30 09:50:17;;;;;;;13.45;4.15;;;;;;;18.90;100.00;102670.81;5069467;28;20518;-69
2023/09/30 09:52:43;;;;;;;14.43;4.70;;;;;;;18.96;100.00;102676.88;5069416;28;20482;-68
2023/09/30 09:55:10;;;;;;;9.38;4.07;;;;;;;19.12;100.00;102685.16;5068551;28;20094;-69
2023/09/30 09:57:36;;;;;;;10.95;4.57;;;;;;;19.10;100.00;102671.84;5068383;28;20415;-68
2023/09/30 10:00:05;;;;;;;12.35;4.82;;;;;;;19.43;100.00;102671.38;5083763;28;20356;-68
2023/09/30 10:02:31;;;;;;;10.85;4.40;;;;;;;19.60;100.00;102667.13;5068104;28;20039;-69
2023/09/30 10:04:56;;;;;;;11.65;3.78;;;;;;;19.77;100.00;102658.34;5066265;28;20107;-68
2023/09/30 10:07:26;;;;;;;10.75;4.05;;;;;;;19.96;100.00;102654.84;5084982;28;20026;-69
2023/09/30 10:09:52;;;;;;;14.15;4.05;;;;;;;19.99;100.00;102656.50;5084181;28;20024;-68
2023/09/30 10:12:21;;;;;;;8.07;3.00;;;;;;;19.90;99.88;102647.94;5084156;28;20074;-67
2023/09/30 10:14:47;;;;;;;14.65;2.83;;;;;;;19.79;91.14;102639.56;5083926;28;20657;-68
2023/09/30 10:17:12;;;;;;;14.55;3.10;;;;;;;19.72;90.90;102643.44;5066735;28;20156;-72
2023/09/30 10:20:05;;;;;;;10.15;2.70;;;;;;;19.62;96.47;102642.97;5056763;28;20108;-70
2023/09/30 10:22:30;;;;;;;8.63;2.95;;;;;;;19.70;96.79;102638.16;5058133;28;20024;-70
2023/09/30 10:24:57;;;;;;;9.75;3.22;;;;;;;19.89;94.31;102638.19;5058246;28;20386;-71
2023/09/30 10:27:22;;;;;;;10.85;3.22;;;;;;;20.05;91.23;102640.22;5062820;28;20028;-69
2023/09/30 10:30:05;;;;;;;13.10;3.20;;;;;;;20.23;92.74;102642.97;5056295;28;20021;-70
2023/09/30 10:32:53;;;;;;;10.70;2.55;;;;;;;20.26;87.95;102640.16;5060254;28;20028;-71
2023/09/30 10:35:19;;;;;;;10.35;2.42;;;;;;;20.22;88.46;102643.94;5066272;28;20028;-70
2023/09/30 10:37:44;;;;;;;7.90;2.70;;;;;;;20.19;88.11;102632.41;5067850;28;20116;-68
2023/09/30 10:40:31;;;;;;;8.10;2.42;;;;;;;20.24;85.04;102644.72;5082686;28;20024;-70
2023/09/30 10:42:57;;;;;;;14.38;2.90;;;;;;;20.45;84.35;102641.03;5068193;28;20115;-70
2023/09/30 10:45:42;;;;;;;8.73;2.40;;;;;;;20.87;81.55;102645.31;5067977;28;20029;-72
2023/09/30 10:48:32;;;;;;;11.88;2.25;;;;;;;21.09;76.85;102645.16;5069134;28;20032;-69
2023/09/30 10:51:00;;;;;;;7.82;2.30;;;;;;;21.26;75.39;102630.03;5069079;28;20422;-70
2023/09/30 10:53:27;;;;;;;6.30;2.33;;;;;;;21.26;72.79;102627.34;5068656;28;20029;-69
2023/09/30 10:55:57;;;;;;;9.82;2.50;;;;;;;21.53;71.69;102633.09;5066076;28;20274;-70
2023/09/30 10:58:45;;;;;;;10.43;2.85;;;;;;;21.66;73.00;102641.34;5067798;28;20024;-68
2023/09/30 11:01:16;;;;;;;8.63;2.40;;;;;;;22.03;67.72;102632.31;5068849;28;20037;-72
2023/09/30 11:03:42;;;;;;;9.40;2.67;;;;;;;22.21;64.16;102635.78;5068356;28;20032;-70